Time;durP1;ratioP1;P1;durP2;ratioP2;P2;SDS_P1;SDS_P2;PMS_P1;PMS_P2;Temp;Humidity;BMP_temperature;BMP_pressure;BME280_temperature;BME280_humidity;BME280_pressure;Samples;Min_cycle;Max_cycle;Signal;HPM_P1;HPM_P2
2021/08/27 00:02:09;;;;;;;11.73;5.80;;;;;;;;;;4992525;28;20077;-56
2021/08/27 00:04:36;;;;;;;7.68;4.70;;;;;;;;;;4992482;28;20134;-56
2021/08/27 00:07:03;;;;;;;7.00;4.28;;;;;;;;;;4978072;28;20054;-56
2021/08/27 00:09:30;;;;;;;11.35;5.72;;;;;;;;;;4983282;28;20133;-53
2021/08/27 00:11:56;;;;;;;7.60;5.03;;;;;;;;;;4992732;28;20101;-58
2021/08/27 00:14:23;;;;;;;9.68;5.70;;;;;;;;;;4990885;28;20049;-56
2021/08/27 00:16:50;;;;;;;7.90;4.63;;;;;;;;;;4992186;28;20049;-53
2021/08/27 00:19:17;;;;;;;8.48;5.00;;;;;;;;;;4989020;28;20048;-56
2021/08/27 00:21:43;;;;;;;10.05;5.10;;;;;;;;;;4992848;28;20043;-52
2021/08/27 00:24:11;;;;;;;6.80;4.55;;;;;;;;;;4992957;28;20080;-53
2021/08/27 00:26:37;;;;;;;8.05;4.40;;;;;;;;;;4990293;28;20066;-55
2021/08/27 00:29:04;;;;;;;11.63;5.32;;;;;;;;;;4991328;28;20545;-52
2021/08/27 00:31:32;;;;;;;11.88;4.95;;;;;;;;;;4990787;28;20049;-57
2021/08/27 00:33:59;;;;;;;9.65;4.97;;;;;;;;;;4992081;28;20051;-57
2021/08/27 00:36:25;;;;;;;10.60;5.15;;;;;;;;;;4988802;28;20034;-57
2021/08/27 00:38:52;;;;;;;7.93;4.57;;;;;;;;;;4989575;28;20547;-56
2021/08/27 00:41:19;;;;;;;13.45;5.32;;;;;;;;;;4992341;28;20043;-57
2021/08/27 00:43:46;;;;;;;8.93;4.65;;;;;;;;;;4992124;28;20583;-56
2021/08/27 00:46:13;;;;;;;9.05;5.10;;;;;;;;;;4991726;28;20048;-58
2021/08/27 00:48:40;;;;;;;7.82;4.43;;;;;;;;;;4998557;28;20043;-56
2021/08/27 00:51:07;;;;;;;7.20;4.97;;;;;;;;;;4986529;28;20407;-57
2021/08/27 00:53:33;;;;;;;10.55;5.75;;;;;;;;;;4990968;28;20060;-57
2021/08/27 00:56:04;;;;;;;7.03;4.75;;;;;;;;;;4990491;28;20042;-58
2021/08/27 00:58:30;;;;;;;7.35;4.82;;;;;;;;;;4991315;28;20177;-55
2021/08/27 01:00:58;;;;;;;10.75;5.38;;;;;;;;;;4987900;28;20039;-57
2021/08/27 01:03:25;;;;;;;9.57;5.28;;;;;;;;;;4995885;28;20038;-57
2021/08/27 01:06:00;;;;;;;9.57;5.10;;;;;;;;;;4995576;28;20418;-58
2021/08/27 01:08:36;;;;;;;8.82;4.95;;;;;;;;;;4984844;28;20128;-57
2021/08/27 01:11:07;;;;;;;8.48;5.20;;;;;;;;;;5002808;28;20566;-57
2021/08/27 01:13:40;;;;;;;8.07;5.22;;;;;;;;;;4996092;28;20042;-58
2021/08/27 01:16:13;;;;;;;10.18;5.25;;;;;;;;;;4995296;28;20507;-56
2021/08/27 01:18:46;;;;;;;8.02;5.25;;;;;;;;;;4994227;28;20579;-57
2021/08/27 01:21:15;;;;;;;7.97;5.72;;;;;;;;;;4995849;28;20046;-58
2021/08/27 01:23:45;;;;;;;7.60;4.85;;;;;;;;;;4995536;28;20134;-58
2021/08/27 01:26:13;;;;;;;9.70;5.15;;;;;;;;;;4995553;28;20042;-57
2021/08/27 01:28:44;;;;;;;9.55;5.07;;;;;;;;;;4989373;28;20484;-57
2021/08/27 01:31:14;;;;;;;9.20;5.35;;;;;;;;;;4995665;28;20507;-58
2021/08/27 01:33:44;;;;;;;7.85;5.15;;;;;;;;;;4995061;28;20042;-57
2021/08/27 01:36:11;;;;;;;11.23;4.75;;;;;;;;;;5012186;23;20038;-53
2021/08/27 01:38:39;;;;;;;8.15;5.20;;;;;;;;;;5009347;28;20064;-51
2021/08/27 01:41:07;;;;;;;9.88;5.07;;;;;;;;;;4994700;28;20039;-53
2021/08/27 01:43:35;;;;;;;9.00;5.60;;;;;;;;;;5012277;28;20046;-51
2021/08/27 01:46:02;;;;;;;8.02;5.22;;;;;;;;;;5013192;28;20140;-50
2021/08/27 01:48:31;;;;;;;12.32;6.20;;;;;;;;;;5012540;28;20046;-51
2021/08/27 01:50:58;;;;;;;8.25;5.00;;;;;;;;;;5013869;28;20045;-50
2021/08/27 01:53:25;;;;;;;10.50;4.95;;;;;;;;;;5014240;28;20112;-51
2021/08/27 01:56:00;;;;;;;8.98;5.40;;;;;;;;;;5013026;28;20034;-51
2021/08/27 01:58:31;;;;;;;8.95;5.50;;;;;;;;;;5012725;28;20140;-51
2021/08/27 02:00:58;;;;;;;8.15;5.32;;;;;;;;;;5011429;28;20050;-51
2021/08/27 02:03:27;;;;;;;8.77;5.50;;;;;;;;;;5013371;28;20053;-50
2021/08/27 02:05:55;;;;;;;8.93;6.10;;;;;;;;;;5007262;28;20536;-49
2021/08/27 02:08:22;;;;;;;11.43;6.57;;;;;;;;;;5005132;28;20125;-49
2021/08/27 02:10:49;;;;;;;12.73;6.60;;;;;;;;;;4993582;28;20057;-55
2021/08/27 02:13:18;;;;;;;11.55;6.88;;;;;;;;;;5005539;28;20042;-53
2021/08/27 02:15:45;;;;;;;13.07;7.38;;;;;;;;;;4993417;28;20042;-50
2021/08/27 02:18:12;;;;;;;10.45;7.28;;;;;;;;;;5002517;28;20121;-52
2021/08/27 02:20:38;;;;;;;11.27;7.57;;;;;;;;;;4998381;28;20042;-53
2021/08/27 02:23:06;;;;;;;13.02;7.45;;;;;;;;;;5013385;28;20411;-50
2021/08/27 02:25:34;;;;;;;16.92;8.45;;;;;;;;;;5012534;28;20054;-51
2021/08/27 02:28:02;;;;;;;11.45;7.90;;;;;;;;;;5009459;28;20045;-49
2021/08/27 02:30:31;;;;;;;13.55;9.30;;;;;;;;;;5013606;28;20042;-52
2021/08/27 02:32:59;;;;;;;13.32;8.88;;;;;;;;;;5012769;28;20042;-52
2021/08/27 02:35:26;;;;;;;13.68;8.90;;;;;;;;;;5008339;28;20038;-49
2021/08/27 02:37:53;;;;;;;13.75;9.73;;;;;;;;;;4998979;28;20038;-49
2021/08/27 02:40:21;;;;;;;15.75;9.85;;;;;;;;;;5011930;28;20488;-49
2021/08/27 02:43:02;;;;;;;14.27;9.80;;;;;;;;;;5012878;28;20507;-49
2021/08/27 02:45:29;;;;;;;16.55;9.90;;;;;;;;;;5012512;28;20052;-52
2021/08/27 02:47:56;;;;;;;17.95;9.63;;;;;;;;;;5012611;28;20048;-49
2021/08/27 02:50:22;;;;;;;13.77;9.48;;;;;;;;;;5012430;28;20046;-51
2021/08/27 02:52:55;;;;;;;12.32;8.85;;;;;;;;;;5011307;28;20116;-51
2021/08/27 02:55:24;;;;;;;13.48;8.68;;;;;;;;;;5012225;28;20037;-50
2021/08/27 02:58:11;;;;;;;13.32;9.25;;;;;;;;;;5007048;28;20415;-52
2021/08/27 03:00:40;;;;;;;14.35;9.70;;;;;;;;;;5013005;28;20042;-50
2021/08/27 03:03:08;;;;;;;14.23;8.80;;;;;;;;;;5012171;28;20046;-50
2021/08/27 03:05:38;;;;;;;14.23;9.43;;;;;;;;;;5011700;28;20053;-54
2021/08/27 03:08:06;;;;;;;15.23;9.23;;;;;;;;;;5008139;28;20048;-55
2021/08/27 03:10:34;;;;;;;13.07;9.10;;;;;;;;;;4993351;28;20133;-53
2021/08/27 03:13:07;;;;;;;12.90;8.77;;;;;;;;;;5004497;28;20129;-52
2021/08/27 03:16:09;;;;;;;17.15;10.43;;;;;;;;;;5012053;28;20042;-53
2021/08/27 03:18:38;;;;;;;14.40;9.20;;;;;;;;;;4957168;28;20427;-51
2021/08/27 03:21:11;;;;;;;12.38;8.05;;;;;;;;;;4988818;28;20080;-54
2021/08/27 03:23:38;;;;;;;13.07;9.20;;;;;;;;;;4992228;28;20054;-51
2021/08/27 03:26:08;;;;;;;15.48;8.77;;;;;;;;;;4991977;28;20050;-51
2021/08/27 03:28:39;;;;;;;14.02;8.85;;;;;;;;;;5006462;28;20117;-53
2021/08/27 03:31:07;;;;;;;12.93;8.70;;;;;;;;;;4992776;28;20046;-53
2021/08/27 03:33:34;;;;;;;17.38;9.18;;;;;;;;;;5011031;28;20160;-54
2021/08/27 03:36:01;;;;;;;12.65;8.30;;;;;;;;;;5009347;28;20050;-50
2021/08/27 03:38:28;;;;;;;13.40;8.05;;;;;;;;;;5009640;28;20058;-53
2021/08/27 03:40:56;;;;;;;15.82;8.90;;;;;;;;;;5010719;28;20407;-51
2021/08/27 03:43:23;;;;;;;13.32;8.20;;;;;;;;;;5011909;28;20042;-52
2021/08/27 03:45:51;;;;;;;12.57;8.52;;;;;;;;;;5011003;28;20061;-50
2021/08/27 03:48:19;;;;;;;14.60;9.32;;;;;;;;;;5010713;28;20065;-54
2021/08/27 03:50:50;;;;;;;14.57;8.52;;;;;;;;;;5010658;28;20045;-52
2021/08/27 03:53:17;;;;;;;15.57;9.45;;;;;;;;;;5011723;28;20505;-51
2021/08/27 03:55:47;;;;;;;13.00;8.45;;;;;;;;;;5004078;28;20038;-52
2021/08/27 03:58:14;;;;;;;13.20;8.73;;;;;;;;;;5009195;28;20126;-54
2021/08/27 04:00:41;;;;;;;14.70;9.27;;;;;;;;;;5011430;28;20049;-53
2021/08/27 04:03:08;;;;;;;14.10;9.00;;;;;;;;;;5011545;28;20054;-51
2021/08/27 04:05:35;;;;;;;12.40;7.80;;;;;;;;;;5005974;28;20100;-54
2021/08/27 04:08:01;;;;;;;13.43;8.18;;;;;;;;;;5011530;28;20046;-51
2021/08/27 04:10:28;;;;;;;13.23;7.90;;;;;;;;;;4992668;28;20050;-50
2021/08/27 04:12:55;;;;;;;9.60;6.15;;;;;;;;;;4996707;28;20064;-49
2021/08/27 04:15:25;;;;;;;13.45;7.20;;;;;;;;;;5010888;28;20038;-54
2021/08/27 04:17:51;;;;;;;12.52;7.50;;;;;;;;;;5010437;28;20048;-51
2021/08/27 04:20:18;;;;;;;10.85;5.95;;;;;;;;;;5010421;28;20053;-51
2021/08/27 04:22:45;;;;;;;9.23;5.10;;;;;;;;;;5011325;28;20056;-52
2021/08/27 04:25:12;;;;;;;9.60;5.13;;;;;;;;;;5010460;28;20056;-50
2021/08/27 04:27:38;;;;;;;9.10;4.88;;;;;;;;;;5009414;28;20050;-50
2021/08/27 04:30:05;;;;;;;7.53;4.28;;;;;;;;;;5030982;28;20136;-53
2021/08/27 04:32:32;;;;;;;10.45;4.30;;;;;;;;;;5010755;28;20080;-52
2021/08/27 04:34:59;;;;;;;6.43;4.18;;;;;;;;;;5009407;28;20034;-51
2021/08/27 04:37:26;;;;;;;6.80;3.83;;;;;;;;;;4993912;28;20053;-53
2021/08/27 04:39:52;;;;;;;7.15;3.78;;;;;;;;;;4995527;28;20414;-51
2021/08/27 04:42:19;;;;;;;6.80;3.65;;;;;;;;;;5011218;28;20056;-51
2021/08/27 04:44:46;;;;;;;5.35;3.08;;;;;;;;;;5010331;28;20038;-52
2021/08/27 04:47:13;;;;;;;7.05;3.17;;;;;;;;;;5009054;28;20046;-53
2021/08/27 04:49:39;;;;;;;5.13;3.15;;;;;;;;;;5000223;28;20128;-49
2021/08/27 04:52:06;;;;;;;6.28;3.70;;;;;;;;;;5010731;28;20050;-51
2021/08/27 04:54:34;;;;;;;6.75;3.90;;;;;;;;;;5010293;28;20042;-51
2021/08/27 04:57:01;;;;;;;7.05;4.28;;;;;;;;;;5007964;28;20517;-53
2021/08/27 04:59:27;;;;;;;7.80;4.97;;;;;;;;;;5010803;28;20068;-51
2021/08/27 05:01:54;;;;;;;7.43;5.03;;;;;;;;;;5011125;28;20050;-51
2021/08/27 05:04:21;;;;;;;8.68;5.00;;;;;;;;;;5010155;28;20103;-49
2021/08/27 05:06:48;;;;;;;7.57;5.00;;;;;;;;;;5009721;28;20052;-49
2021/08/27 05:09:17;;;;;;;10.50;7.10;;;;;;;;;;5002191;28;20050;-51
2021/08/27 05:11:44;;;;;;;8.55;4.35;;;;;;;;;;5005154;28;20128;-53
2021/08/27 05:14:11;;;;;;;7.68;5.00;;;;;;;;;;5009478;28;20038;-51
2021/08/27 05:16:38;;;;;;;7.75;4.60;;;;;;;;;;5008717;28;20046;-51
2021/08/27 05:19:05;;;;;;;7.68;4.20;;;;;;;;;;4992979;28;20043;-50
2021/08/27 05:21:31;;;;;;;6.90;4.43;;;;;;;;;;5010933;28;20114;-50
2021/08/27 05:23:58;;;;;;;7.95;4.32;;;;;;;;;;5010604;28;20058;-51
2021/08/27 05:26:25;;;;;;;8.25;4.93;;;;;;;;;;5012976;28;20074;-50
2021/08/27 05:28:52;;;;;;;9.15;5.18;;;;;;;;;;5019131;28;20038;-50
2021/08/27 05:31:19;;;;;;;6.93;4.88;;;;;;;;;;5010892;28;20081;-53
2021/08/27 05:33:46;;;;;;;8.38;5.13;;;;;;;;;;5010614;28;20128;-54
2021/08/27 05:36:12;;;;;;;8.32;5.50;;;;;;;;;;5001074;28;20065;-53
2021/08/27 05:38:39;;;;;;;8.07;5.05;;;;;;;;;;5005793;28;20040;-52
2021/08/27 05:41:06;;;;;;;7.63;5.20;;;;;;;;;;4991379;28;20094;-53
2021/08/27 05:43:33;;;;;;;11.77;6.25;;;;;;;;;;4991224;28;20077;-53
2021/08/27 05:46:01;;;;;;;10.85;6.30;;;;;;;;;;4992049;28;20417;-49
2021/08/27 05:48:28;;;;;;;11.45;6.90;;;;;;;;;;4994614;28;20061;-50
2021/08/27 05:50:55;;;;;;;12.30;7.30;;;;;;;;;;4994626;28;20054;-51
2021/08/27 05:53:22;;;;;;;10.13;7.30;;;;;;;;;;4994464;28;20049;-50
2021/08/27 05:55:48;;;;;;;11.45;7.07;;;;;;;;;;4993761;28;20049;-51
2021/08/27 05:58:15;;;;;;;11.32;7.47;;;;;;;;;;5011329;28;20479;-50
2021/08/27 06:00:42;;;;;;;12.82;7.65;;;;;;;;;;5012322;28;20093;-52
2021/08/27 06:03:09;;;;;;;12.77;7.10;;;;;;;;;;5013852;28;20081;-53
2021/08/27 06:05:36;;;;;;;12.43;7.57;;;;;;;;;;5017249;28;20440;-53
2021/08/27 06:08:03;;;;;;;14.77;8.02;;;;;;;;;;5017291;28;20045;-52
2021/08/27 06:10:30;;;;;;;11.57;8.02;;;;;;;;;;5015363;28;20451;-52
2021/08/27 06:12:57;;;;;;;13.00;8.23;;;;;;;;;;5023922;28;20049;-49
2021/08/27 06:15:24;;;;;;;11.77;7.72;;;;;;;;;;5018919;28;20042;-49
2021/08/27 06:17:50;;;;;;;11.38;7.78;;;;;;;;;;5009450;28;20042;-51
2021/08/27 06:20:17;;;;;;;11.20;7.70;;;;;;;;;;5015003;28;20450;-51
2021/08/27 06:22:44;;;;;;;11.23;7.47;;;;;;;;;;5015029;28;20042;-52
2021/08/27 06:25:11;;;;;;;11.05;7.53;;;;;;;;;;5026457;28;20071;-55
2021/08/27 06:27:38;;;;;;;11.80;7.80;;;;;;;;;;5009670;28;20433;-51
2021/08/27 06:30:05;;;;;;;16.13;8.18;;;;;;;;;;5015898;28;20052;-53
2021/08/27 06:32:32;;;;;;;10.65;6.93;;;;;;;;;;5014327;28;20145;-50
2021/08/27 06:35:03;;;;;;;12.07;7.55;;;;;;;;;;5014683;28;20084;-54
2021/08/27 06:40:15;;;;;;;11.07;8.10;;;;;;;;;;5014962;28;20416;-50
2021/08/27 06:42:42;;;;;;;11.77;7.28;;;;;;;;;;5014645;28;20492;-51
2021/08/27 06:45:09;;;;;;;12.30;7.03;;;;;;;;;;5014258;28;20038;-50
2021/08/27 06:47:35;;;;;;;10.32;6.57;;;;;;;;;;5019153;28;20042;-49
2021/08/27 06:50:03;;;;;;;12.70;6.47;;;;;;;;;;5017018;28;20117;-48
2021/08/27 06:52:31;;;;;;;41.17;7.88;;;;;;;;;;5015044;28;20033;-49
2021/08/27 06:54:58;;;;;;;10.07;6.25;;;;;;;;;;5010876;28;20275;-50
2021/08/27 06:57:25;;;;;;;13.50;6.45;;;;;;;;;;5012092;28;20065;-50
2021/08/27 06:59:53;;;;;;;9.25;6.43;;;;;;;;;;5012198;28;20057;-48
2021/08/27 07:02:20;;;;;;;11.35;6.80;;;;;;;;;;5010359;28;20049;-47
2021/08/27 07:04:47;;;;;;;10.52;6.63;;;;;;;;;;5011997;28;20037;-49
2021/08/27 07:07:14;;;;;;;10.68;5.78;;;;;;;;;;5013028;28;20038;-50
2021/08/27 07:09:41;;;;;;;10.77;7.18;;;;;;;;;;5011429;28;20044;-44
2021/08/27 07:12:11;;;;;;;9.98;5.72;;;;;;;;;;5019296;28;20034;-44
2021/08/27 07:14:38;;;;;;;10.30;6.60;;;;;;;;;;5009951;28;20616;-51
2021/08/27 07:17:05;;;;;;;8.23;5.13;;;;;;;;;;5011518;28;20037;-51
2021/08/27 07:19:32;;;;;;;9.45;5.47;;;;;;;;;;5012679;28;20407;-48
2021/08/27 07:21:59;;;;;;;8.85;6.10;;;;;;;;;;5011304;28;20038;-54
2021/08/27 07:24:26;;;;;;;10.30;5.72;;;;;;;;;;5010954;28;20042;-51
2021/08/27 07:26:52;;;;;;;10.25;6.28;;;;;;;;;;5015277;28;20038;-52
2021/08/27 07:29:19;;;;;;;8.68;6.25;;;;;;;;;;5024566;28;20061;-48
2021/08/27 07:31:46;;;;;;;9.77;5.80;;;;;;;;;;5014727;28;20046;-53
2021/08/27 07:34:13;;;;;;;10.27;5.97;;;;;;;;;;5014928;28;20056;-56
2021/08/27 07:36:41;;;;;;;9.38;5.22;;;;;;;;;;5025131;28;20042;-53
2021/08/27 07:39:07;;;;;;;10.20;5.53;;;;;;;;;;5003099;28;20045;-51
2021/08/27 07:41:34;;;;;;;8.20;4.93;;;;;;;;;;5011773;28;20048;-48
2021/08/27 07:44:01;;;;;;;8.20;4.55;;;;;;;;;;5010889;28;20137;-53
2021/08/27 07:46:29;;;;;;;6.78;4.55;;;;;;;;;;5010942;28;20128;-50
2021/08/27 07:48:56;;;;;;;6.50;4.35;;;;;;;;;;5006231;28;20042;-49
2021/08/27 07:51:23;;;;;;;7.22;4.22;;;;;;;;;;5010074;28;20156;-51
2021/08/27 07:53:50;;;;;;;7.85;4.35;;;;;;;;;;5009627;28;20053;-49
2021/08/27 07:56:17;;;;;;;6.20;4.40;;;;;;;;;;5009633;28;20092;-50
2021/08/27 07:58:45;;;;;;;9.10;4.07;;;;;;;;;;5006215;28;20046;-53
2021/08/27 08:01:12;;;;;;;5.72;3.33;;;;;;;;;;5010869;28;20054;-52
2021/08/27 08:03:39;;;;;;;6.15;3.40;;;;;;;;;;5009753;28;20053;-56
2021/08/27 08:06:06;;;;;;;4.55;2.88;;;;;;;;;;5009916;28;20492;-54
2021/08/27 08:08:33;;;;;;;3.70;2.72;;;;;;;;;;5001768;28;20046;-55
2021/08/27 08:10:59;;;;;;;5.10;2.78;;;;;;;;;;5010874;28;20411;-47
2021/08/27 08:13:26;;;;;;;4.82;3.15;;;;;;;;;;5010563;28;20482;-51
2021/08/27 08:15:53;;;;;;;6.82;3.00;;;;;;;;;;5010346;28;20048;-53
2021/08/27 08:18:20;;;;;;;7.38;3.55;;;;;;;;;;5009073;28;20492;-54
2021/08/27 08:20:46;;;;;;;5.78;3.42;;;;;;;;;;5013266;28;20048;-54
2021/08/27 08:23:14;;;;;;;7.00;3.10;;;;;;;;;;5019478;28;20038;-48
2021/08/27 08:25:40;;;;;;;4.53;2.65;;;;;;;;;;5013087;28;20506;-50
2021/08/27 08:28:08;;;;;;;7.63;2.67;;;;;;;;;;5020876;28;20042;-49
2021/08/27 08:30:35;;;;;;;5.72;3.70;;;;;;;;;;5011380;28;20061;-51
2021/08/27 08:33:02;;;;;;;8.75;3.78;;;;;;;;;;5019335;28;20121;-53
2021/08/27 08:35:29;;;;;;;5.78;4.03;;;;;;;;;;5010419;28;20473;-50
2021/08/27 08:37:55;;;;;;;6.90;4.38;;;;;;;;;;5019558;28;20052;-54
2021/08/27 08:40:22;;;;;;;8.05;4.40;;;;;;;;;;5011555;28;20042;-53
2021/08/27 08:42:49;;;;;;;6.05;4.25;;;;;;;;;;5015173;28;20046;-53
2021/08/27 08:45:16;;;;;;;5.63;4.00;;;;;;;;;;5014045;28;20048;-52
2021/08/27 08:47:45;;;;;;;5.50;3.78;;;;;;;;;;5014738;28;20060;-55
2021/08/27 08:50:13;;;;;;;6.45;4.20;;;;;;;;;;5011326;28;20559;-53
2021/08/27 08:52:40;;;;;;;7.22;3.88;;;;;;;;;;5016933;28;20072;-51
2021/08/27 08:55:07;;;;;;;6.35;3.55;;;;;;;;;;5009985;28;20038;-50
2021/08/27 08:57:34;;;;;;;8.18;4.70;;;;;;;;;;5004230;28;20070;-50
2021/08/27 09:00:01;;;;;;;5.05;3.58;;;;;;;;;;5008992;28;20407;-53
2021/08/27 09:02:28;;;;;;;7.03;3.85;;;;;;;;;;5009104;28;20077;-51
2021/08/27 09:04:55;;;;;;;7.72;3.85;;;;;;;;;;5008467;28;20060;-47
2021/08/27 09:07:22;;;;;;;6.93;3.63;;;;;;;;;;5010700;28;20057;-47
2021/08/27 09:09:49;;;;;;;5.57;3.22;;;;;;;;;;5009540;28;20054;-49
2021/08/27 09:12:19;;;;;;;6.13;2.90;;;;;;;;;;5011649;28;20053;-51
2021/08/27 09:15:00;;;;;;;4.70;2.72;;;;;;;;;;5008825;28;20113;-48
2021/08/27 09:17:28;;;;;;;7.45;3.13;;;;;;;;;;4997564;28;20062;-46
2021/08/27 09:19:55;;;;;;;4.95;2.80;;;;;;;;;;5011426;28;20042;-45
2021/08/27 09:22:22;;;;;;;6.10;3.08;;;;;;;;;;5016740;28;20446;-50
2021/08/27 09:25:04;;;;;;;6.40;2.72;;;;;;;;;;5024003;28;20043;-48
2021/08/27 09:27:31;;;;;;;5.65;2.38;;;;;;;;;;5017851;28;20136;-47
2021/08/27 09:29:59;;;;;;;6.05;2.60;;;;;;;;;;5031269;28;20049;-48
2021/08/27 09:32:27;;;;;;;4.00;2.28;;;;;;;;;;5020843;28;20046;-48
2021/08/27 09:35:00;;;;;;;5.38;2.28;;;;;;;;;;5022233;28;20543;-48
2021/08/27 09:37:34;;;;;;;5.82;2.13;;;;;;;;;;5023943;28;20050;-48
2021/08/27 09:40:03;;;;;;;5.78;2.55;;;;;;;;;;5015363;28;20034;-51
2021/08/27 09:42:43;;;;;;;6.80;2.50;;;;;;;;;;5014886;28;20086;-49
2021/08/27 09:45:10;;;;;;;5.40;2.30;;;;;;;;;;5024878;28;20422;-57
2021/08/27 09:47:38;;;;;;;2.63;1.67;;;;;;;;;;5022036;28;20080;-52
2021/08/27 09:50:21;;;;;;;4.28;2.13;;;;;;;;;;5007578;28;20133;-50
2021/08/27 09:52:55;;;;;;;5.15;2.08;;;;;;;;;;5024960;28;20049;-53
2021/08/27 09:55:22;;;;;;;4.63;2.40;;;;;;;;;;5028220;28;20514;-51
2021/08/27 09:57:50;;;;;;;6.43;2.22;;;;;;;;;;5008954;28;20054;-54
2021/08/27 10:00:21;;;;;;;5.35;2.20;;;;;;;;;;5028931;28;20042;-50
2021/08/27 10:02:48;;;;;;;3.40;1.92;;;;;;;;;;5017538;28;20503;-52
2021/08/27 10:05:16;;;;;;;6.15;2.08;;;;;;;;;;5014130;28;20046;-51
2021/08/27 10:07:43;;;;;;;5.25;2.70;;;;;;;;;;5013250;28;20100;-52
2021/08/27 10:10:11;;;;;;;4.18;2.10;;;;;;;;;;5018183;28;20041;-57
2021/08/27 10:12:43;;;;;;;7.15;2.70;;;;;;;;;;5024857;28;20049;-55
2021/08/27 10:15:11;;;;;;;3.93;2.33;;;;;;;;;;5021121;28;20133;-56
2021/08/27 10:17:38;;;;;;;3.97;2.33;;;;;;;;;;5015358;28;20125;-50
2021/08/27 10:20:07;;;;;;;5.18;2.40;;;;;;;;;;5001388;28;20038;-55
2021/08/27 10:22:41;;;;;;;4.50;2.45;;;;;;;;;;5024542;28;20053;-54
2021/08/27 10:25:10;;;;;;;4.57;2.35;;;;;;;;;;5020402;28;20120;-53
2021/08/27 10:27:37;;;;;;;3.85;2.20;;;;;;;;;;5010234;28;20042;-55
2021/08/27 10:30:04;;;;;;;4.03;2.33;;;;;;;;;;5016276;28;20041;-51
2021/08/27 10:32:40;;;;;;;16.35;6.32;;;;;;;;;;5020624;28;20133;-53
2021/08/27 10:35:11;;;;;;;4.82;2.80;;;;;;;;;;5013406;28;20034;-53
2021/08/27 10:37:41;;;;;;;6.38;2.85;;;;;;;;;;5016077;28;20066;-53
2021/08/27 10:40:37;;;;;;;3.95;2.85;;;;;;;;;;5006512;28;20044;-51
2021/08/27 10:43:04;;;;;;;6.10;3.75;;;;;;;;;;5004777;28;20069;-51
2021/08/27 10:45:30;;;;;;;7.38;3.72;;;;;;;;;;5028669;28;20050;-50
2021/08/27 10:48:07;;;;;;;5.07;3.10;;;;;;;;;;5016837;28;20050;-52
2021/08/27 10:50:34;;;;;;;5.35;3.88;;;;;;;;;;5014147;28;20076;-52
2021/08/27 10:53:19;;;;;;;4.97;2.80;;;;;;;;;;5016651;28;20050;-51
2021/08/27 10:55:46;;;;;;;6.05;2.90;;;;;;;;;;5011611;28;20029;-55
2021/08/27 10:58:15;;;;;;;5.63;3.28;;;;;;;;;;5019754;28;20045;-56
2021/08/27 11:00:47;;;;;;;7.07;2.47;;;;;;;;;;5024229;28;20128;-51
2021/08/27 11:03:15;;;;;;;5.00;2.70;;;;;;;;;;5015226;28;20415;-48
2021/08/27 11:05:46;;;;;;;4.35;2.30;;;;;;;;;;5011061;28;20037;-53
2021/08/27 11:08:16;;;;;;;3.80;2.70;;;;;;;;;;5007995;28;20460;-54
2021/08/27 11:11:03;;;;;;;4.25;2.95;;;;;;;;;;5014075;28;20049;-52
2021/08/27 11:13:34;;;;;;;5.80;3.20;;;;;;;;;;5012751;28;20045;-52
2021/08/27 11:16:19;;;;;;;4.00;3.20;;;;;;;;;;5011862;28;20042;-50
2021/08/27 11:18:46;;;;;;;3.33;2.30;;;;;;;;;;5008240;28;20042;-51
2021/08/27 11:21:31;;;;;;;4.30;2.75;;;;;;;;;;5001941;28;20070;-50
2021/08/27 11:24:11;;;;;;;5.32;3.22;;;;;;;;;;5011933;28;20120;-52
2021/08/27 11:26:39;;;;;;;3.47;2.45;;;;;;;;;;5008549;28;20038;-54
2021/08/27 11:29:41;;;;;;;6.82;2.60;;;;;;;;;;5012046;28;20475;-51
2021/08/27 11:32:10;;;;;;;9.77;4.45;;;;;;;;;;4970523;28;20090;-51
2021/08/27 11:34:48;;;;;;;33.03;11.75;;;;;;;;;;4995574;28;20057;-49
2021/08/27 11:37:15;;;;;;;4.75;3.17;;;;;;;;;;5011255;28;20042;-48
2021/08/27 11:39:45;;;;;;;57.53;9.68;;;;;;;;;;4998090;28;20046;-50
2021/08/27 11:42:13;;;;;;;6.15;3.00;;;;;;;;;;5007906;28;20037;-51
2021/08/27 11:44:53;;;;;;;7.28;2.50;;;;;;;;;;5017041;28;20507;-50
2021/08/27 11:47:20;;;;;;;5.43;2.80;;;;;;;;;;4999908;28;20428;-50
2021/08/27 11:49:54;;;;;;;5.25;2.50;;;;;;;;;;4990623;28;20056;-49
2021/08/27 11:52:25;;;;;;;3.75;2.10;;;;;;;;;;4992119;28;20049;-49
2021/08/27 11:54:58;;;;;;;6.75;2.60;;;;;;;;;;4992113;28;20050;-50
2021/08/27 11:57:25;;;;;;;3.30;2.10;;;;;;;;;;4992587;28;20121;-49
2021/08/27 12:00:02;;;;;;;4.68;2.28;;;;;;;;;;4992418;28;20043;-50
2021/08/27 12:02:38;;;;;;;5.00;2.50;;;;;;;;;;4992413;28;20042;-51
2021/08/27 12:05:10;;;;;;;3.25;2.22;;;;;;;;;;4992146;28;20042;-49
2021/08/27 12:07:40;;;;;;;4.65;2.15;;;;;;;;;;4992443;28;20054;-50
2021/08/27 12:10:08;;;;;;;4.45;2.35;;;;;;;;;;4992050;28;20141;-47
2021/08/27 12:12:36;;;;;;;3.45;2.25;;;;;;;;;;4992468;28;20089;-49
2021/08/27 12:15:06;;;;;;;3.45;2.20;;;;;;;;;;4991959;28;20038;-48
2021/08/27 12:17:33;;;;;;;5.25;2.58;;;;;;;;;;4991977;28;20050;-54
2021/08/27 12:20:00;;;;;;;4.10;2.47;;;;;;;;;;4992410;28;20094;-49
2021/08/27 12:22:29;;;;;;;4.07;2.28;;;;;;;;;;4992079;28;20042;-52
2021/08/27 12:24:56;;;;;;;3.78;2.22;;;;;;;;;;4990607;28;20042;-52
2021/08/27 12:27:23;;;;;;;4.53;2.35;;;;;;;;;;4991572;28;20092;-50
2021/08/27 12:30:03;;;;;;;4.82;2.40;;;;;;;;;;5011501;28;20145;-50
2021/08/27 12:32:30;;;;;;;3.45;2.17;;;;;;;;;;5009160;28;20046;-48
2021/08/27 12:34:58;;;;;;;5.50;2.42;;;;;;;;;;5017307;28;20041;-49
2021/08/27 12:37:25;;;;;;;5.03;2.15;;;;;;;;;;5011891;28;20042;-47
2021/08/27 12:39:52;;;;;;;3.17;2.17;;;;;;;;;;5006916;28;20045;-52
2021/08/27 12:42:20;;;;;;;5.13;2.40;;;;;;;;;;5010635;28;20038;-49
2021/08/27 12:44:55;;;;;;;2.63;2.00;;;;;;;;;;5018556;28;20049;-46
2021/08/27 12:47:48;;;;;;;4.95;1.80;;;;;;;;;;5015400;28;20074;-49
2021/08/27 12:50:15;;;;;;;4.50;2.38;;;;;;;;;;5008221;28;20109;-51
2021/08/27 12:52:57;;;;;;;3.58;1.83;;;;;;;;;;5022816;28;20038;-48
2021/08/27 12:55:27;;;;;;;6.40;2.55;;;;;;;;;;5012608;28;20044;-48
2021/08/27 12:57:53;;;;;;;5.38;2.80;;;;;;;;;;5018726;28;20047;-48
2021/08/27 13:00:22;;;;;;;6.57;2.50;;;;;;;;;;5024927;28;20045;-51
2021/08/27 13:02:48;;;;;;;3.75;2.33;;;;;;;;;;5027149;28;20034;-52
2021/08/27 13:05:35;;;;;;;4.90;2.45;;;;;;;;;;5010407;28;20046;-49
2021/08/27 13:08:16;;;;;;;3.45;1.65;;;;;;;;;;5017747;28;20124;-52
2021/08/27 13:11:01;;;;;;;2.83;1.60;;;;;;;;;;5017426;28;20138;-50
2021/08/27 13:13:30;;;;;;;2.20;1.20;;;;;;;;;;5013614;28;20037;-52
2021/08/27 13:16:07;;;;;;;3.95;1.58;;;;;;;;;;5021713;28;20049;-53
2021/08/27 13:18:38;;;;;;;2.20;1.10;;;;;;;;;;5010448;28;20045;-55
2021/08/27 13:21:05;;;;;;;2.20;1.20;;;;;;;;;;5011966;28;20081;-56
2021/08/27 13:23:32;;;;;;;4.10;1.20;;;;;;;;;;5015125;28;20044;-56
2021/08/27 13:26:00;;;;;;;3.45;1.38;;;;;;;;;;5016505;28;20510;-53
2021/08/27 13:28:27;;;;;;;1.73;1.15;;;;;;;;;;5005902;28;20132;-56
2021/08/27 13:30:55;;;;;;;1.75;1.05;;;;;;;;;;5013911;28;20527;-57
2021/08/27 13:33:21;;;;;;;2.83;1.40;;;;;;;;;;5014924;28;20136;-57
2021/08/27 13:35:48;;;;;;;1.95;1.23;;;;;;;;;;5017672;28;20099;-53
2021/08/27 13:38:15;;;;;;;3.30;1.30;;;;;;;;;;5007438;28;20474;-57
2021/08/27 13:40:42;;;;;;;3.88;1.40;;;;;;;;;;5013641;28;20143;-53
2021/08/27 13:43:09;;;;;;;2.78;1.20;;;;;;;;;;5013890;28;20030;-56
2021/08/27 13:45:36;;;;;;;2.58;1.30;;;;;;;;;;5014194;28;20046;-55
2021/08/27 13:48:04;;;;;;;3.15;1.48;;;;;;;;;;5012145;28;20049;-52
2021/08/27 13:50:31;;;;;;;2.70;1.30;;;;;;;;;;5013912;28;20057;-51
2021/08/27 13:52:58;;;;;;;2.22;1.15;;;;;;;;;;5013063;28;20048;-50
2021/08/27 13:55:25;;;;;;;1.85;1.10;;;;;;;;;;5012979;28;20050;-51
2021/08/27 13:57:53;;;;;;;4.35;1.40;;;;;;;;;;5014286;28;20045;-52
2021/08/27 14:00:20;;;;;;;2.58;1.30;;;;;;;;;;5015173;28;20053;-52
2021/08/27 14:02:47;;;;;;;2.25;1.60;;;;;;;;;;5022076;28;20073;-50
2021/08/27 14:05:15;;;;;;;2.17;1.30;;;;;;;;;;4998340;28;20053;-48
2021/08/27 14:07:42;;;;;;;4.03;1.40;;;;;;;;;;4992856;28;20127;-49
2021/08/27 14:10:09;;;;;;;3.80;1.67;;;;;;;;;;4994225;28;20177;-49
2021/08/27 14:12:37;;;;;;;4.85;1.67;;;;;;;;;;4998122;28;20042;-54
2021/08/27 14:15:04;;;;;;;4.10;1.48;;;;;;;;;;5011241;28;20134;-54
2021/08/27 14:17:32;;;;;;;4.43;2.03;;;;;;;;;;5006817;28;20422;-52
2021/08/27 14:19:59;;;;;;;1.90;1.20;;;;;;;;;;5009525;28;20069;-58
2021/08/27 14:22:27;;;;;;;2.05;1.40;;;;;;;;;;5012631;28;20396;-52
2021/08/27 14:24:54;;;;;;;3.05;1.50;;;;;;;;;;5012409;28;20125;-57
2021/08/27 14:27:21;;;;;;;4.93;1.35;;;;;;;;;;5013285;28;20049;-57
2021/08/27 14:29:48;;;;;;;3.97;1.40;;;;;;;;;;5013799;28;20095;-56
2021/08/27 14:32:24;;;;;;;2.33;1.42;;;;;;;;;;5014914;28;20099;-54
2021/08/27 14:34:51;;;;;;;2.08;1.10;;;;;;;;;;5007024;28;20858;-53
2021/08/27 14:37:18;;;;;;;3.55;1.25;;;;;;;;;;5012522;28;20407;-54
2021/08/27 14:39:45;;;;;;;2.88;1.45;;;;;;;;;;5001038;28;20056;-54
2021/08/27 14:42:12;;;;;;;3.50;1.30;;;;;;;;;;5000107;28;20037;-54
2021/08/27 14:44:38;;;;;;;1.95;1.10;;;;;;;;;;5010065;28;20034;-54
2021/08/27 14:47:06;;;;;;;2.13;1.20;;;;;;;;;;5010978;28;20042;-55
2021/08/27 14:49:33;;;;;;;2.33;1.17;;;;;;;;;;5003674;28;20360;-51
2021/08/27 14:52:01;;;;;;;2.45;1.10;;;;;;;;;;5012438;28;20077;-52